Time;durP1;ratioP1;P1;durP2;ratioP2;P2;SDS_P1;SDS_P2;PMS_P1;PMS_P2;Temp;Humidity;BMP_temperature;BMP_pressure;BME280_temperature;BME280_humidity;BME280_pressure;Samples;Min_cycle;Max_cycle;Signal;HPM_P1;HPM_P2
2023/10/08 00:00:43;;;;;;;3.78;1.80;;;20.70;99.90;;;;;;5208158;28;20063;-66
2023/10/08 00:03:20;;;;;;;2.88;1.55;;;20.70;99.90;;;;;;5190248;28;20049;-67
2023/10/08 00:05:54;;;;;;;3.58;1.92;;;20.60;99.90;;;;;;5154551;28;20053;-65
2023/10/08 00:08:31;;;;;;;3.47;1.42;;;20.50;99.90;;;;;;5187841;28;20029;-65
2023/10/08 00:11:06;;;;;;;5.53;2.08;;;20.60;99.90;;;;;;5170707;28;20060;-64
2023/10/08 00:13:43;;;;;;;3.03;1.50;;;20.50;99.90;;;;;;5140025;28;20041;-65
2023/10/08 00:16:21;;;;;;;3.00;1.67;;;20.60;99.90;;;;;;5173124;28;20043;-66
2023/10/08 00:18:59;;;;;;;2.25;1.90;;;20.70;99.90;;;;;;5156096;28;20060;-64
2023/10/08 00:21:35;;;;;;;8.82;1.90;;;20.70;99.90;;;;;;5196748;28;20554;-65
2023/10/08 00:24:07;;;;;;;2.15;1.40;;;20.60;99.90;;;;;;5188452;28;20059;-63
2023/10/08 00:26:41;;;;;;;4.95;1.90;;;20.70;99.90;;;;;;5210755;28;20109;-66
2023/10/08 00:31:49;;;;;;;3.22;1.60;;;20.70;99.90;;;;;;5217840;28;20102;-63
2023/10/08 00:34:27;;;;;;;;;;;20.60;99.90;;;;;;5209020;28;20350;-66
2023/10/08 00:37:01;;;;;;;3.40;1.70;;;20.60;99.90;;;;;;5192521;28;19927;-64
2023/10/08 00:39:39;;;;;;;;;;;20.60;66.40;;;;;;5210928;28;20130;-63
2023/10/08 00:42:12;;;;;;;4.55;1.63;;;20.60;99.90;;;;;;5199238;28;20011;-64
2023/10/08 00:44:51;;;;;;;2.42;1.90;;;20.50;99.90;;;;;;5194573;28;20277;-64
2023/10/08 00:47:27;;;;;;;5.32;2.10;;;20.50;99.90;;;;;;5208857;28;20250;-64
2023/10/08 00:50:07;;;;;;;4.45;1.92;;;20.60;99.90;;;;;;5209245;28;20040;-63
2023/10/08 00:53:02;;;;;;;4.55;1.90;;;20.60;99.90;;;;;;5224100;28;20777;-65
2023/10/08 00:55:35;;;;;;;;;;;20.60;99.90;;;;;;5209094;28;20220;-65
2023/10/08 00:58:23;;;;;;;3.40;1.88;;;20.50;99.90;;;;;;5191519;28;20307;-64
2023/10/08 01:03:44;;;;;;;5.43;1.85;;;20.50;99.90;;;;;;4959718;22;20053;-67
2023/10/08 01:06:20;;;;;;;5.10;2.25;;;20.50;96.70;;;;;;5190947;28;20119;-67
2023/10/08 01:08:57;;;;;;;4.47;2.13;;;20.50;1.00;;;;;;5191393;28;20044;-67
2023/10/08 01:11:49;;;;;;;3.45;1.67;;;20.50;1.00;;;;;;5205740;28;20415;-65
2023/10/08 01:14:21;;;;;;;3.58;1.80;;;20.40;1.00;;;;;;5158199;28;20049;-65
2023/10/08 01:16:58;;;;;;;2.53;1.80;;;20.40;99.90;;;;;;5171933;28;20533;-66
2023/10/08 01:19:40;;;;;;;2.55;2.17;;;20.40;99.90;;;;;;5174479;28;20103;-66
2023/10/08 01:22:16;;;;;;;3.45;1.80;;;20.40;99.90;;;;;;5171375;28;20597;-66
2023/10/08 01:24:49;;;;;;;3.53;1.83;;;20.30;99.90;;;;;;5153305;28;20117;-67
2023/10/08 01:27:24;;;;;;;5.80;2.03;;;20.30;99.90;;;;;;5157725;28;20057;-66
2023/10/08 01:30:08;;;;;;;2.50;1.73;;;20.30;99.20;;;;;;5187076;28;20047;-64
2023/10/08 01:32:45;;;;;;;3.28;1.70;;;20.30;99.90;;;;;;5186395;28;20546;-65
2023/10/08 01:35:23;;;;;;;3.38;2.10;;;20.30;99.90;;;;;;5210464;28;20037;-66
2023/10/08 01:38:03;;;;;;;4.22;1.92;;;20.30;29.40;;;;;;5162973;28;20037;-66
2023/10/08 01:40:38;;;;;;;3.03;1.80;;;20.20;99.90;;;;;;5178898;28;20036;-64
2023/10/08 01:43:15;;;;;;;3.92;1.80;;;20.20;99.90;;;;;;5157709;28;20071;-65
2023/10/08 01:45:56;;;;;;;3.47;2.10;;;20.20;99.90;;;;;;5194239;28;20210;-65
2023/10/08 01:48:37;;;;;;;3.97;2.10;;;20.20;99.90;;;;;;5194976;28;20593;-66
2023/10/08 01:51:24;;;;;;;4.05;2.28;;;20.10;26.10;;;;;;5161313;28;20063;-65
2023/10/08 01:53:58;;;;;;;3.28;1.65;;;20.10;83.10;;;;;;5208835;28;20505;-67
2023/10/08 01:56:32;;;;;;;13.52;2.25;;;20.10;53.30;;;;;;5175985;28;20243;-65
2023/10/08 01:59:08;;;;;;;5.40;2.15;;;20.10;99.90;;;;;;5176098;28;20111;-66
2023/10/08 02:01:58;;;;;;;3.97;2.03;;;20.10;93.60;;;;;;5159564;28;20041;-69
2023/10/08 02:04:30;;;;;;;3.92;2.25;;;20.10;71.40;;;;;;5167549;28;20060;-67
2023/10/08 02:07:08;;;;;;;2.13;1.67;;;20.10;99.90;;;;;;5169751;28;20048;-66
2023/10/08 02:09:42;;;;;;;2.38;1.60;;;20.20;1.00;;;;;;5185897;28;20037;-65
2023/10/08 02:12:16;;;;;;;4.70;1.88;;;20.20;99.90;;;;;;5169630;28;20159;-67
2023/10/08 02:14:50;;;;;;;3.53;1.90;;;20.20;86.30;;;;;;5173878;28;20047;-66
2023/10/08 02:17:24;;;;;;;2.58;1.60;;;20.10;1.00;;;;;;5156653;28;20483;-67
2023/10/08 02:19:58;;;;;;;;;;;20.10;1.00;;;;;;5157729;28;20052;-66
2023/10/08 02:22:35;;;;;;;3.88;1.60;;;20.10;1.00;;;;;;5154993;28;19921;-68
2023/10/08 02:25:11;;;;;;;5.18;1.90;;;20.10;3.10;;;;;;5173368;28;20554;-65
2023/10/08 02:27:42;;;;;;;3.15;1.67;;;20.10;72.40;;;;;;5157487;28;20195;-67
2023/10/08 02:30:17;;;;;;;4.25;2.10;;;20.00;31.20;;;;;;5155339;28;20049;-68
2023/10/08 02:32:58;;;;;;;2.97;1.95;;;20.00;30.90;;;;;;5162179;28;20041;-64
2023/10/08 02:35:29;;;;;;;2.83;1.80;;;19.90;1.00;;;;;;5154360;28;20513;-67
2023/10/08 02:38:01;;;;;;;3.83;1.85;;;19.90;1.00;;;;;;5157334;28;20025;-66
2023/10/08 02:40:32;;;;;;;4.53;2.13;;;19.90;1.00;;;;;;5173344;28;20043;-65
2023/10/08 02:43:14;;;;;;;7.18;2.03;;;19.90;1.00;;;;;;5164970;28;20037;-66
2023/10/08 02:45:49;;;;;;;6.47;2.08;;;19.90;1.00;;;;;;5152211;28;20165;-67
2023/10/08 02:48:20;;;;;;;5.45;2.13;;;19.90;1.00;;;;;;5153118;28;20082;-65
2023/10/08 02:50:54;;;;;;;2.63;1.70;;;19.90;1.00;;;;;;5175765;28;20036;-65
2023/10/08 02:53:25;;;;;;;5.57;1.75;;;19.90;1.00;;;;;;5169916;28;20194;-67
2023/10/08 02:55:57;;;;;;;4.50;2.40;;;19.80;1.00;;;;;;5174282;28;20052;-65
2023/10/08 02:58:30;;;;;;;3.80;1.90;;;19.90;1.00;;;;;;5134721;28;20061;-64
2023/10/08 03:01:06;;;;;;;4.83;2.20;;;19.90;1.00;;;;;;5171083;28;20035;-65
2023/10/08 03:03:42;;;;;;;2.60;1.73;;;19.90;1.00;;;;;;5172057;28;20044;-67
2023/10/08 03:06:18;;;;;;;2.80;1.92;;;19.90;1.00;;;;;;5173686;28;20046;-66
2023/10/08 03:08:52;;;;;;;2.78;1.90;;;19.90;1.00;;;;;;5174036;28;20273;-66
2023/10/08 03:11:29;;;;;;;2.75;2.03;;;19.80;1.00;;;;;;5173643;28;20052;-64
2023/10/08 03:14:00;;;;;;;3.97;1.63;;;19.80;1.00;;;;;;5172961;28;20047;-66
2023/10/08 03:20:42;;;;;;;4.72;2.10;;;19.90;1.00;;;;;;5191854;28;20025;-66
2023/10/08 03:25:58;;;;;;;3.13;1.77;;;19.90;1.00;;;;;;5173664;28;20045;-64
2023/10/08 03:28:34;;;;;;;3.92;1.80;;;19.80;1.00;;;;;;5190110;28;20033;-64
2023/10/08 03:31:17;;;;;;;2.88;1.83;;;19.90;1.00;;;;;;5190016;28;20119;-64
2023/10/08 03:33:51;;;;;;;3.33;2.10;;;19.80;1.00;;;;;;5173328;28;20056;-65
2023/10/08 03:40:22;;;;;;;3.63;2.25;;;19.80;1.00;;;;;;5191365;28;19913;-64
2023/10/08 03:43:02;;;;;;;9.85;2.05;;;19.80;1.00;;;;;;5157677;28;20072;-68
2023/10/08 03:45:53;;;;;;;3.83;2.03;;;19.80;1.00;;;;;;5189605;28;20037;-66
2023/10/08 03:48:33;;;;;;;5.32;1.60;;;19.80;1.00;;;;;;5189343;28;20055;-63
2023/10/08 03:51:11;;;;;;;3.05;2.22;;;19.80;1.00;;;;;;5157103;28;20046;-66
2023/10/08 03:54:15;;;;;;;5.82;2.42;;;19.80;1.00;;;;;;5189315;28;20093;-65
2023/10/08 03:56:48;;;;;;;3.17;1.92;;;19.80;1.00;;;;;;5155841;28;20047;-66
2023/10/08 03:59:30;;;;;;;4.53;1.63;;;19.70;1.00;;;;;;5156107;28;20046;-66
2023/10/08 04:12:50;;;;;;;;;;;19.60;1.00;;;;;;5133922;28;20078;-64
2023/10/08 04:15:24;;;;;;;3.00;2.10;;;19.70;1.00;;;;;;5128042;28;19937;-65
2023/10/08 04:18:02;;;;;;;4.00;2.22;;;19.70;1.00;;;;;;5138073;28;20056;-64
2023/10/08 04:21:00;;;;;;;5.13;2.33;;;19.70;1.00;;;;;;5151269;28;20207;-66
2023/10/08 04:23:32;;;;;;;2.83;1.83;;;19.70;1.00;;;;;;5133104;28;20469;-66
2023/10/08 04:26:06;;;;;;;3.65;2.03;;;19.70;1.00;;;;;;5116154;28;20045;-66
2023/10/08 04:28:38;;;;;;;3.65;1.90;;;19.70;1.00;;;;;;5116110;28;20056;-64
2023/10/08 04:31:14;;;;;;;2.70;1.70;;;19.70;1.00;;;;;;5145050;28;20038;-68
2023/10/08 04:33:47;;;;;;;2.88;1.98;;;19.70;1.00;;;;;;5140081;28;20048;-65
2023/10/08 04:36:19;;;;;;;3.88;2.05;;;19.70;1.00;;;;;;5133780;28;20057;-68
2023/10/08 04:39:04;;;;;;;3.85;1.98;;;19.60;1.00;;;;;;5133616;28;20048;-68
2023/10/08 04:41:42;;;;;;;;;;;19.60;1.00;;;;;;5136229;28;20041;-65
2023/10/08 04:44:21;;;;;;;5.28;2.08;;;19.60;1.00;;;;;;5129833;28;19993;-65
2023/10/08 04:46:53;;;;;;;3.35;2.00;;;19.60;1.00;;;;;;5113449;28;20160;-66
2023/10/08 04:49:30;;;;;;;6.45;2.00;;;19.60;1.00;;;;;;5128843;28;20042;-64
2023/10/08 04:52:14;;;;;;;6.43;2.40;;;19.50;1.00;;;;;;5130316;28;20042;-67
2023/10/08 04:54:51;;;;;;;3.83;2.15;;;19.50;1.00;;;;;;5150071;28;20026;-66
2023/10/08 04:57:34;;;;;;;4.07;2.20;;;19.60;1.00;;;;;;5117247;28;20030;-65
2023/10/08 05:00:13;;;;;;;5.85;2.60;;;19.60;1.00;;;;;;5133737;28;20034;-67
2023/10/08 05:02:54;;;;;;;4.15;1.85;;;19.70;1.00;;;;;;5151242;28;20362;-65
2023/10/08 05:05:50;;;;;;;6.72;2.55;;;19.70;1.00;;;;;;5146171;28;20041;-66
2023/10/08 05:09:11;;;;;;;3.50;2.05;;;19.80;1.00;;;;;;5170312;28;20040;-67
2023/10/08 05:11:36;;;;;;;5.20;2.13;;;19.80;1.00;;;;;;5166746;28;20044;-65
2023/10/08 05:14:27;;;;;;;4.60;2.25;;;19.70;1.00;;;;;;5134197;28;20046;-66
2023/10/08 05:17:11;;;;;;;5.60;2.13;;;19.70;1.00;;;;;;5152521;28;21284;-66
2023/10/08 05:20:17;;;;;;;2.17;1.60;;;19.70;1.00;;;;;;5129925;28;20053;-65
2023/10/08 05:22:43;;;;;;;3.08;1.70;;;19.80;1.00;;;;;;5141787;28;20053;-64
2023/10/08 05:30:41;;;;;;;6.57;2.20;;;19.70;1.00;;;;;;5155589;28;20034;-65
2023/10/08 05:36:09;;;;;;;5.25;1.70;;;19.70;1.00;;;;;;5153121;28;20046;-64
2023/10/08 05:39:00;;;;;;;7.23;1.90;;;19.70;1.00;;;;;;5127271;28;20719;-65
2023/10/08 05:41:39;;;;;;;4.13;2.03;;;19.70;1.00;;;;;;5144472;28;20025;-64
2023/10/08 05:44:23;;;;;;;3.95;2.10;;;19.70;1.00;;;;;;5141480;28;20053;-65
2023/10/08 05:49:38;;;;;;;4.85;3.03;;;19.70;1.00;;;;;;5156628;28;20034;-66
2023/10/08 05:52:25;;;;;;;3.97;2.28;;;19.70;1.00;;;;;;5171561;28;20036;-65
2023/10/08 06:03:47;;;;;;;4.55;1.80;;;19.70;1.00;;;;;;5154037;28;20041;-64
2023/10/08 06:06:22;;;;;;;4.90;2.88;;;19.70;1.00;;;;;;5150048;28;20057;-63
2023/10/08 06:09:21;;;;;;;4.43;1.95;;;19.70;1.00;;;;;;5191266;28;20041;-64
2023/10/08 06:12:12;;;;;;;3.50;1.67;;;19.80;1.00;;;;;;5154498;28;20474;-66
2023/10/08 06:15:06;;;;;;;4.97;2.40;;;19.80;1.00;;;;;;5164963;28;20034;-68
2023/10/08 06:17:55;;;;;;;4.40;1.70;;;19.80;1.00;;;;;;5152424;28;20052;-65
2023/10/08 06:20:32;;;;;;;4.13;2.28;;;19.90;1.00;;;;;;5119657;28;20038;-62
2023/10/08 06:23:07;;;;;;;2.88;1.92;;;19.90;1.00;;;;;;5131290;28;20171;-63
2023/10/08 06:25:45;;;;;;;5.10;1.95;;;20.00;1.00;;;;;;5174585;28;20052;-65
2023/10/08 06:28:21;;;;;;;3.58;1.70;;;20.10;1.00;;;;;;5171419;28;20125;-64
2023/10/08 06:30:58;;;;;;;3.00;1.83;;;20.20;1.00;;;;;;5150537;28;20075;-64
2023/10/08 06:33:34;;;;;;;2.38;1.92;;;20.20;1.00;;;;;;5143977;28;20044;-66
2023/10/08 06:38:49;;;;;;;2.40;1.50;;;20.30;1.00;;;;;;5157537;28;20056;-63
2023/10/08 06:41:33;;;;;;;6.32;2.40;;;20.40;1.00;;;;;;5156688;28;20030;-64
2023/10/08 06:44:14;;;;;;;2.67;2.10;;;20.40;1.00;;;;;;5166121;28;20049;-65
2023/10/08 06:46:45;;;;;;;4.70;2.03;;;20.30;1.00;;;;;;5152686;28;20030;-64
2023/10/08 06:49:23;;;;;;;6.20;3.05;;;20.40;1.00;;;;;;5145998;28;20080;-63
2023/10/08 06:51:54;;;;;;;5.00;2.45;;;20.40;1.00;;;;;;5151494;28;20359;-66
2023/10/08 06:54:30;;;;;;;4.53;2.13;;;20.60;1.00;;;;;;5177004;28;20143;-62
2023/10/08 06:57:01;;;;;;;10.57;2.67;;;20.60;1.00;;;;;;5172337;28;20028;-66
2023/10/08 06:59:39;;;;;;;2.83;1.83;;;20.60;1.00;;;;;;5153980;28;20026;-62
2023/10/08 07:02:15;;;;;;;4.60;1.58;;;20.60;1.00;;;;;;5166297;28;20038;-65
2023/10/08 07:04:47;;;;;;;4.63;2.05;;;20.70;1.00;;;;;;5167374;28;20054;-65
2023/10/08 07:07:19;;;;;;;3.13;1.80;;;20.70;1.00;;;;;;5151905;28;20034;-62
2023/10/08 07:09:51;;;;;;;2.85;1.95;;;20.50;1.00;;;;;;5151529;28;20064;-66
2023/10/08 07:12:28;;;;;;;4.43;2.03;;;20.60;1.00;;;;;;5151321;28;20042;-65
2023/10/08 07:15:10;;;;;;;5.45;1.70;;;20.60;1.00;;;;;;5164693;28;20601;-63
2023/10/08 07:17:45;;;;;;;5.40;2.13;;;20.60;1.00;;;;;;5170946;28;20323;-65
2023/10/08 07:20:28;;;;;;;2.70;2.20;;;20.70;1.00;;;;;;5171261;28;20040;-65
2023/10/08 07:23:03;;;;;;;3.80;1.73;;;20.70;1.00;;;;;;5153783;28;20049;-66
2023/10/08 07:25:38;;;;;;;7.10;1.95;;;20.70;1.00;;;;;;5138798;28;20060;-64
2023/10/08 07:28:12;;;;;;;4.13;1.80;;;20.80;1.00;;;;;;5170296;28;20044;-66
2023/10/08 07:30:49;;;;;;;7.18;1.65;;;20.90;1.00;;;;;;5153482;28;20060;-65
2023/10/08 07:33:25;;;;;;;4.07;2.38;;;21.10;1.00;;;;;;5158837;28;20052;-65
2023/10/08 07:36:11;;;;;;;3.58;1.88;;;21.20;1.00;;;;;;5150166;28;20317;-64
2023/10/08 07:38:46;;;;;;;2.78;2.17;;;21.20;1.00;;;;;;5150874;28;20034;-65
2023/10/08 07:41:20;;;;;;;3.92;2.20;;;21.10;1.00;;;;;;5137688;28;20355;-62
2023/10/08 07:43:55;;;;;;;3.72;1.50;;;21.10;1.00;;;;;;5163008;28;20045;-64
2023/10/08 07:46:28;;;;;;;3.83;1.90;;;21.00;1.00;;;;;;5159835;28;20061;-64
2023/10/08 07:48:59;;;;;;;5.55;1.98;;;21.10;1.00;;;;;;5170238;28;20037;-65
2023/10/08 07:51:40;;;;;;;6.20;2.22;;;21.10;1.00;;;;;;5153864;28;20050;-66
2023/10/08 07:54:16;;;;;;;2.95;1.90;;;21.10;1.00;;;;;;5134291;28;20143;-62
2023/10/08 07:57:08;;;;;;;5.65;2.00;;;21.20;1.00;;;;;;5160286;28;20026;-66
2023/10/08 07:59:46;;;;;;;4.75;2.00;;;21.40;1.00;;;;;;5165588;28;20046;-66
2023/10/08 08:02:20;;;;;;;4.07;2.03;;;21.50;1.00;;;;;;5159522;28;20036;-66
2023/10/08 08:04:53;;;;;;;5.18;1.67;;;21.50;1.00;;;;;;5135662;28;20041;-65
2023/10/08 08:07:27;;;;;;;3.70;1.90;;;21.50;1.00;;;;;;5128765;28;20121;-65
2023/10/08 08:09:58;;;;;;;4.47;2.00;;;21.30;1.00;;;;;;5166270;28;20050;-66
2023/10/08 08:12:35;;;;;;;3.35;2.05;;;21.40;1.00;;;;;;5171430;28;20036;-62
2023/10/08 08:15:18;;;;;;;3.75;1.98;;;21.70;1.00;;;;;;5152835;28;20049;-65
2023/10/08 08:17:54;;;;;;;6.05;2.17;;;21.80;1.00;;;;;;5165037;28;20034;-65
2023/10/08 08:20:34;;;;;;;3.90;2.10;;;21.40;1.00;;;;;;5140063;28;20053;-67
2023/10/08 08:23:09;;;;;;;4.03;2.53;;;21.50;1.00;;;;;;5167116;28;20056;-64
2023/10/08 08:28:38;;;;;;;7.60;1.98;;;21.40;1.00;;;;;;5168194;28;20034;-65
2023/10/08 08:31:16;;;;;;;3.90;1.73;;;21.30;1.00;;;;;;5163201;28;20318;-64
2023/10/08 08:33:53;;;;;;;4.20;1.95;;;21.20;1.00;;;;;;5171375;28;20688;-64
2023/10/08 08:36:28;;;;;;;2.80;1.60;;;21.20;1.00;;;;;;5170150;28;20226;-65
2023/10/08 08:39:04;;;;;;;3.67;2.08;;;21.40;1.00;;;;;;5152835;28;20238;-66
2023/10/08 08:41:44;;;;;;;5.72;1.80;;;21.40;1.00;;;;;;5153394;28;20745;-64
2023/10/08 08:44:18;;;;;;;4.70;2.00;;;21.00;1.00;;;;;;5134335;28;20045;-66
2023/10/08 08:46:49;;;;;;;4.10;2.30;;;20.80;1.00;;;;;;5157927;28;20046;-66
2023/10/08 08:49:23;;;;;;;4.97;2.08;;;20.70;99.90;;;;;;5167747;28;20037;-66
2023/10/08 08:51:56;;;;;;;7.03;2.40;;;20.50;1.00;;;;;;5168030;28;20040;-64
2023/10/08 08:54:30;;;;;;;3.33;1.70;;;20.50;99.90;;;;;;5152793;28;20038;-64
2023/10/08 08:57:04;;;;;;;6.47;2.35;;;20.50;99.90;;;;;;5167659;28;20358;-68
2023/10/08 09:00:00;;;;;;;3.65;2.03;;;20.60;99.90;;;;;;5149792;28;20419;-64
2023/10/08 09:02:32;;;;;;;4.72;2.25;;;20.60;1.00;;;;;;5131564;28;20045;-66
2023/10/08 09:05:13;;;;;;;4.80;2.65;;;20.40;99.90;;;;;;5133757;28;20327;-65
2023/10/08 09:08:06;;;;;;;2.53;1.85;;;20.30;1.00;;;;;;5140061;28;20045;-64
2023/10/08 09:10:50;;;;;;;6.07;2.10;;;20.30;1.00;;;;;;5153717;28;20038;-66
2023/10/08 09:13:22;;;;;;;;;;;20.20;1.00;;;;;;5157765;28;20522;-66
2023/10/08 09:16:15;;;;;;;5.93;2.10;;;20.10;99.90;;;;;;5153113;28;20117;-63
2023/10/08 09:18:52;;;;;;;5.82;2.05;;;19.90;1.00;;;;;;5152176;28;20392;-66
2023/10/08 09:21:24;;;;;;;6.88;1.77;;;19.80;99.90;;;;;;5151624;28;20041;-64
2023/10/08 09:23:55;;;;;;;4.07;2.00;;;19.70;99.90;;;;;;5147003;28;20026;-65
2023/10/08 09:26:30;;;;;;;2.58;1.90;;;19.60;99.90;;;;;;5171314;28;20057;-64
2023/10/08 09:29:08;;;;;;;6.43;2.60;;;19.40;99.90;;;;;;5154544;28;20021;-64
2023/10/08 09:31:48;;;;;;;3.95;1.98;;;19.40;99.90;;;;;;5132103;28;20038;-63
2023/10/08 09:34:19;;;;;;;3.05;1.90;;;19.30;99.90;;;;;;5138777;28;20051;-63
2023/10/08 09:36:55;;;;;;;5.28;1.50;;;19.20;99.90;;;;;;5138047;28;20038;-64
2023/10/08 09:39:36;;;;;;;4.30;2.33;;;19.00;99.90;;;;;;5135965;28;20038;-63
2023/10/08 09:42:11;;;;;;;1.27;1.17;;;18.70;18.60;;;;;;5131453;28;20249;-63
2023/10/08 09:44:43;;;;;;;2.65;1.20;;;18.50;99.90;;;;;;5171597;28;20046;-62
2023/10/08 09:47:23;;;;;;;1.55;1.10;;;18.20;1.00;;;;;;5151977;28;20048;-64
2023/10/08 09:50:08;;;;;;;2.45;1.27;;;18.10;99.90;;;;;;5132955;28;20897;-63
2023/10/08 09:53:16;;;;;;;1.40;1.13;;;18.10;99.90;;;;;;5149362;28;20048;-65
2023/10/08 09:55:59;;;;;;;1.58;1.00;;;18.10;99.90;;;;;;5143386;28;20254;-65
2023/10/08 09:58:33;;;;;;;1.05;0.95;;;18.00;1.00;;;;;;5142168;28;20021;-65
2023/10/08 10:01:07;;;;;;;1.10;0.90;;;18.00;1.00;;;;;;5127497;28;20050;-64
2023/10/08 10:03:42;;;;;;;0.93;0.90;;;17.90;1.00;;;;;;5160158;28;20034;-64
2023/10/08 10:06:17;;;;;;;1.58;0.70;;;17.90;1.00;;;;;;5148635;28;20052;-63
2023/10/08 10:08:52;;;;;;;0.70;0.70;;;17.80;1.00;;;;;;5151912;28;20048;-63
2023/10/08 10:11:29;;;;;;;2.60;1.10;;;17.70;1.00;;;;;;5150951;28;20052;-65
2023/10/08 10:14:11;;;;;;;1.67;0.82;;;17.60;99.90;;;;;;5150039;28;20168;-63
2023/10/08 10:16:45;;;;;;;0.63;0.63;;;17.40;1.00;;;;;;5146053;28;20050;-64
2023/10/08 10:19:20;;;;;;;0.82;0.80;;;17.30;1.00;;;;;;5151621;28;20034;-64
2023/10/08 10:21:58;;;;;;;1.00;0.88;;;17.10;1.00;;;;;;5167155;28;20038;-64
2023/10/08 10:24:37;;;;;;;0.65;0.65;;;17.00;99.90;;;;;;5150703;28;20041;-64
2023/10/08 10:27:17;;;;;;;0.70;0.70;;;16.90;99.90;;;;;;5146258;28;20052;-64
2023/10/08 10:29:52;;;;;;;0.70;0.70;;;16.70;1.00;;;;;;5149323;28;20045;-63
2023/10/08 10:32:24;;;;;;;0.60;0.60;;;16.40;1.00;;;;;;5167089;28;20034;-63
2023/10/08 10:34:55;;;;;;;0.65;0.65;;;16.30;1.00;;;;;;5168111;28;20491;-63
2023/10/08 10:37:41;;;;;;;2.47;0.80;;;16.20;1.00;;;;;;5165870;28;20037;-64
2023/10/08 10:40:12;;;;;;;0.73;0.73;;;16.20;1.00;;;;;;5168110;28;20074;-63
2023/10/08 10:42:53;;;;;;;0.77;0.77;;;16.10;1.00;;;;;;5151265;28;20583;-62
2023/10/08 10:45:42;;;;;;;0.60;0.60;;;16.00;99.90;;;;;;5150542;28;20463;-63
2023/10/08 10:53:57;;;;;;;0.70;0.70;;;15.60;99.90;;;;;;5166448;28;20535;-64
2023/10/08 10:56:32;;;;;;;0.70;0.70;;;15.50;99.90;;;;;;5162471;28;20053;-63
2023/10/08 10:59:22;;;;;;;0.60;0.60;;;15.50;99.90;;;;;;5166400;28;20045;-63
2023/10/08 11:02:05;;;;;;;0.80;0.70;;;15.50;99.90;;;;;;5164951;28;20042;-63
2023/10/08 11:04:48;;;;;;;0.60;0.60;;;15.40;99.90;;;;;;5152211;28;20246;-64
2023/10/08 11:07:26;;;;;;;0.80;0.80;;;15.40;99.90;;;;;;5114057;28;20046;-62
2023/10/08 11:09:58;;;;;;;0.57;0.57;;;15.30;1.00;;;;;;5150797;28;20037;-63
2023/10/08 11:12:42;;;;;;;0.52;0.52;;;15.20;1.00;;;;;;5150990;28;20515;-63
2023/10/08 11:15:16;;;;;;;0.63;0.63;;;15.10;1.00;;;;;;5131638;28;20302;-62
2023/10/08 11:17:52;;;;;;;0.93;0.50;;;15.10;1.00;;;;;;5162452;28;20038;-63
2023/10/08 11:20:27;;;;;;;0.60;0.60;;;15.20;1.00;;;;;;5134505;28;20038;-61
2023/10/08 11:23:17;;;;;;;0.70;0.70;;;15.00;1.00;;;;;;5133085;28;20424;-65
2023/10/08 11:26:03;;;;;;;0.40;0.40;;;14.60;1.00;;;;;;5148000;28;20238;-64
2023/10/08 11:28:47;;;;;;;1.85;1.75;;;14.30;1.00;;;;;;5133630;28;20289;-62
2023/10/08 11:31:21;;;;;;;0.70;0.70;;;14.00;1.00;;;;;;5165998;28;20039;-67
2023/10/08 11:33:55;;;;;;;1.00;1.00;;;13.70;1.00;;;;;;5150217;28;20230;-64
2023/10/08 11:36:28;;;;;;;0.80;0.80;;;13.50;73.30;;;;;;5162471;28;20033;-64
2023/10/08 11:39:21;;;;;;;0.70;0.70;;;13.40;99.90;;;;;;5131642;28;20079;-64
2023/10/08 11:42:06;;;;;;;0.60;0.60;;;13.20;99.90;;;;;;5151702;28;20040;-65
2023/10/08 11:44:39;;;;;;;0.90;0.90;;;13.10;99.90;;;;;;5134446;28;20048;-66
2023/10/08 11:47:12;;;;;;;0.70;0.70;;;13.00;99.90;;;;;;5126433;28;20038;-63
2023/10/08 11:50:00;;;;;;;0.82;0.82;;;13.00;99.90;;;;;;5112873;28;20046;-65
2023/10/08 11:52:41;;;;;;;0.93;0.93;;;13.00;99.90;;;;;;5152642;28;20268;-65
2023/10/08 11:55:22;;;;;;;0.70;0.70;;;13.00;99.90;;;;;;5150127;28;20034;-68
2023/10/08 11:57:54;;;;;;;0.80;0.80;;;13.00;99.90;;;;;;5121247;28;20041;-66
2023/10/08 12:00:26;;;;;;;0.73;0.73;;;13.00;99.90;;;;;;5134382;28;20037;-63
2023/10/08 12:03:01;;;;;;;0.80;0.80;;;13.00;99.90;;;;;;5155862;28;20046;-66
2023/10/08 12:05:35;;;;;;;0.80;0.80;;;13.00;99.90;;;;;;5149307;28;20042;-64
2023/10/08 12:08:08;;;;;;;1.10;1.00;;;13.00;99.90;;;;;;5131696;28;20064;-62
2023/10/08 12:10:43;;;;;;;0.70;0.70;;;13.00;99.90;;;;;;5166269;28;20021;-68
2023/10/08 12:13:18;;;;;;;0.77;0.77;;;13.10;82.90;;;;;;5117369;28;20041;-67
2023/10/08 12:16:12;;;;;;;0.80;0.70;;;13.00;1.00;;;;;;5140101;28;20034;-66
2023/10/08 12:18:56;;;;;;;0.68;0.68;;;12.90;1.00;;;;;;5145903;28;20547;-67
2023/10/08 12:21:31;;;;;;;0.80;0.80;;;12.80;1.00;;;;;;5150252;28;20253;-68
2023/10/08 12:24:05;;;;;;;1.00;1.00;;;12.80;1.00;;;;;;5132521;28;20052;-65
2023/10/08 12:26:36;;;;;;;0.83;0.83;;;12.80;1.00;;;;;;5131475;28;20026;-66
2023/10/08 12:29:14;;;;;;;1.00;0.90;;;12.80;1.00;;;;;;5131782;28;20044;-66
2023/10/08 12:31:48;;;;;;;0.80;0.80;;;12.80;23.80;;;;;;5129123;28;20037;-68
2023/10/08 12:34:22;;;;;;;0.95;0.95;;;12.70;99.90;;;;;;5141177;28;20037;-64
2023/10/08 12:36:54;;;;;;;0.70;0.70;;;12.40;99.90;;;;;;5115608;28;20057;-65
2023/10/08 12:39:28;;;;;;;0.80;0.80;;;12.20;99.90;;;;;;5147555;28;20025;-67
2023/10/08 12:42:05;;;;;;;1.85;0.88;;;12.00;99.90;;;;;;5149291;28;20037;-64
2023/10/08 12:44:38;;;;;;;0.80;0.80;;;11.80;99.90;;;;;;5127843;28;20056;-69
2023/10/08 12:47:12;;;;;;;1.10;1.00;;;11.50;99.90;;;;;;5137952;28;20038;-62
2023/10/08 12:49:46;;;;;;;0.98;0.95;;;11.30;99.90;;;;;;5116860;28;20526;-63
2023/10/08 12:52:20;;;;;;;5.13;1.00;;;11.20;99.90;;;;;;5165819;28;20034;-66
2023/10/08 12:54:53;;;;;;;0.85;0.80;;;11.20;99.90;;;;;;5146969;28;20038;-66
2023/10/08 12:57:31;;;;;;;0.80;0.80;;;11.20;99.90;;;;;;5147743;28;20044;-68
2023/10/08 13:00:03;;;;;;;1.00;0.90;;;11.00;99.90;;;;;;5145326;28;20581;-65
2023/10/08 13:02:42;;;;;;;1.40;1.23;;;11.00;99.90;;;;;;5131067;28;20714;-67
2023/10/08 13:05:16;;;;;;;1.80;1.13;;;10.90;99.90;;;;;;5160640;28;20569;-65
2023/10/08 13:07:47;;;;;;;1.73;1.52;;;10.90;99.90;;;;;;5149085;28;20053;-64
2023/10/08 13:10:18;;;;;;;1.45;1.35;;;10.90;99.90;;;;;;5166284;28;20033;-68
2023/10/08 13:12:52;;;;;;;1.65;1.10;;;10.80;99.90;;;;;;5148292;28;20045;-65
2023/10/08 13:15:26;;;;;;;1.75;1.38;;;10.80;99.90;;;;;;5124827;28;20037;-66
2023/10/08 13:17:57;;;;;;;2.67;1.50;;;10.80;99.90;;;;;;5146116;28;20552;-66
2023/10/08 13:20:34;;;;;;;1.10;1.00;;;10.70;99.90;;;;;;5166190;28;20255;-64
2023/10/08 13:23:06;;;;;;;3.15;1.95;;;10.70;99.90;;;;;;5148768;28;20357;-67
2023/10/08 13:25:40;;;;;;;2.13;1.10;;;10.70;99.90;;;;;;5110219;28;20050;-68
2023/10/08 13:28:12;;;;;;;1.90;1.15;;;10.70;99.90;;;;;;5115712;28;20046;-65
2023/10/08 13:30:43;;;;;;;1.35;1.25;;;10.70;99.90;;;;;;5115978;28;20535;-67
2023/10/08 13:33:15;;;;;;;1.35;1.25;;;10.70;99.90;;;;;;5134083;28;20042;-66
2023/10/08 13:35:49;;;;;;;1.05;1.02;;;10.60;99.90;;;;;;5142623;28;20366;-67
2023/10/08 13:38:21;;;;;;;3.40;1.10;;;10.70;99.90;;;;;;5167649;28;20548;-69
2023/10/08 13:41:06;;;;;;;2.65;1.45;;;10.70;99.90;;;;;;5149443;28;20044;-66
2023/10/08 13:43:51;;;;;;;1.30;1.20;;;10.70;99.90;;;;;;5152116;28;20223;-70
2023/10/08 13:46:22;;;;;;;1.20;1.10;;;10.60;99.90;;;;;;5145186;28;20038;-67
2023/10/08 13:48:57;;;;;;;1.73;1.30;;;10.70;99.90;;;;;;5151423;28;20030;-68
2023/10/08 13:51:34;;;;;;;2.15;1.10;;;10.70;99.90;;;;;;5168880;28;20030;-69
2023/10/08 13:54:06;;;;;;;1.83;1.50;;;10.70;99.90;;;;;;5114412;28;20042;-71
2023/10/08 13:56:38;;;;;;;1.17;1.00;;;10.70;99.90;;;;;;5152576;28;20030;-69
2023/10/08 13:59:12;;;;;;;1.50;1.40;;;10.70;99.90;;;;;;5127898;28;20049;-69
2023/10/08 14:01:51;;;;;;;3.50;1.45;;;10.80;99.90;;;;;;5163874;28;20046;-67
2023/10/08 14:04:38;;;;;;;2.15;1.30;;;10.90;99.90;;;;;;5127791;28;20042;-69
2023/10/08 14:07:16;;;;;;;1.60;1.50;;;10.90;99.90;;;;;;5144961;28;20034;-70
2023/10/08 14:09:50;;;;;;;3.20;1.55;;;10.90;99.90;;;;;;5142987;28;20106;-69
2023/10/08 14:12:25;;;;;;;1.73;1.30;;;10.80;99.90;;;;;;5163102;28;20038;-65
2023/10/08 14:15:06;;;;;;;4.80;1.98;;;10.90;99.90;;;;;;5120293;28;20037;-66
2023/10/08 14:17:42;;;;;;;4.45;1.23;;;10.90;99.90;;;;;;5150984;28;20040;-68
2023/10/08 14:20:21;;;;;;;1.60;1.50;;;10.90;99.90;;;;;;5151203;28;20153;-65
2023/10/08 14:22:57;;;;;;;1.52;1.33;;;10.90;99.90;;;;;;5149704;28;20037;-70
2023/10/08 14:25:33;;;;;;;3.10;1.77;;;10.80;99.90;;;;;;5164073;28;20025;-69
2023/10/08 14:28:21;;;;;;;1.48;1.30;;;10.80;99.90;;;;;;5169231;28;20042;-66
2023/10/08 14:30:55;;;;;;;2.28;1.60;;;10.70;99.90;;;;;;5116341;28;20050;-67
2023/10/08 14:33:32;;;;;;;1.55;1.45;;;10.60;99.90;;;;;;5124964;28;20121;-67
2023/10/08 14:44:34;;;;;;;1.98;1.45;;;10.60;99.90;;;;;;5163992;28;20034;-63
2023/10/08 14:47:06;;;;;;;1.67;1.20;;;10.60;99.90;;;;;;5166942;28;20030;-66
2023/10/08 14:49:38;;;;;;;1.83;1.40;;;10.60;99.90;;;;;;5117806;28;20042;-65
2023/10/08 14:52:10;;;;;;;1.80;1.42;;;10.60;99.90;;;;;;5167584;28;20038;-66